Time;durP1;ratioP1;P1;durP2;ratioP2;P2;SDS_P1;SDS_P2;PMS_P1;PMS_P2;Temp;Humidity;BMP_temperature;BMP_pressure;BME280_temperature;BME280_humidity;BME280_pressure;Samples;Min_cycle;Max_cycle;Signal;HPM_P1;HPM_P2
2023/12/03 10:25:06;;;;;;;12.40;7.37;;;1.40;90.50;;;1.76;55.09;99431.19;6083777;23;98425;-78
2023/12/03 10:27:43;;;;;;;12.17;7.47;;;1.40;90.90;;;2.03;56.56;99430.69;6087983;23;123037;-80
2023/12/03 10:30:13;;;;;;;13.50;8.67;;;1.60;92.10;;;2.37;56.74;99439.00;6100184;23;114437;-80
2023/12/03 19:57:21;;;;;;;22.33;11.63;;;1.90;88.80;;;1.97;53.91;99170.06;6088592;23;115828;-83
2023/12/03 20:00:05;;;;;;;16.97;10.33;;;-1.20;87.10;;;1.95;53.77;99166.75;6057235;23;115681;-79
2023/12/03 20:06:21;;;;;;;19.90;12.30;;;2.00;88.60;;;1.83;54.22;99168.69;6027933;23;124321;-82
2023/12/03 20:09:04;;;;;;;17.67;10.50;;;1.00;89.00;;;1.80;54.50;99166.47;6026150;23;115027;-81
2023/12/03 20:28:05;;;;;;;11.53;7.43;;;-0.60;86.00;;;1.70;55.25;99127.09;6087487;23;124886;-80
2023/12/03 20:30:43;;;;;;;12.37;7.33;;;2.20;90.40;;;2.01;57.53;99138.50;6013542;23;113552;-80
2023/12/03 20:38:33;;;;;;;17.27;10.20;;;2.00;91.70;;;2.42;56.65;99133.69;6128148;22;99362;-82
2023/12/03 20:41:24;;;;;;;16.17;9.97;;;-0.40;91.50;;;2.39;55.75;99123.25;6064082;23;113882;-81
2023/12/03 20:44:48;;;;;;;16.30;9.63;;;0.40;90.40;;;2.31;55.29;99115.50;6091349;23;113381;-81
2023/12/03 20:50:17;;;;;;;18.80;10.90;;;2.00;90.30;;;2.09;54.14;99104.56;6106347;22;98651;-80
2023/12/03 20:53:06;;;;;;;18.83;10.87;;;0.40;88.60;;;1.99;54.58;99106.06;6041371;23;116202;-81
2023/12/03 21:00:54;;;;;;;16.73;10.03;;;1.80;89.30;;;1.89;54.19;99084.09;6089342;23;96443;-81
2023/12/03 21:03:29;;;;;;;16.97;10.37;;;-1.20;89.40;;;1.88;54.09;99081.63;6090207;23;114932;-81
2023/12/03 21:05:59;;;;;;;20.53;10.20;;;0.20;87.70;;;1.86;54.03;99083.78;6036695;23;114584;-80
2023/12/03 21:08:54;;;;;;;18.77;10.77;;;4.20;91.20;;;1.81;53.98;99076.34;6087046;23;124755;-81
2023/12/03 21:11:48;;;;;;;16.73;10.00;;;-1.00;86.20;;;1.73;53.83;99074.84;6087661;23;123370;-82
2023/12/03 21:14:17;;;;;;;16.20;9.90;;;-1.50;88.80;;;1.64;53.83;99072.78;6095494;22;114877;-79
2023/12/03 21:16:47;;;;;;;18.80;9.17;;;0.30;88.70;;;1.60;53.63;99069.75;6129850;23;113569;-79
2023/12/03 21:19:14;;;;;;;17.57;10.10;;;3.50;90.40;;;1.57;53.93;99059.34;6126907;23;124077;-80
2023/12/03 21:21:47;;;;;;;19.93;10.47;;;1.50;90.60;;;1.58;53.84;99063.72;6129012;23;122476;-80
2023/12/03 21:24:16;;;;;;;13.43;9.20;;;1.80;90.60;;;1.58;53.64;99071.88;6103544;23;113985;-81
2023/12/03 21:26:43;;;;;;;18.50;10.63;;;1.50;91.40;;;1.57;53.73;99070.25;6138760;23;113918;-81
2023/12/03 21:29:44;;;;;;;18.13;9.77;;;1.50;90.40;;;1.57;53.25;99059.34;6144873;22;124595;-81
2023/12/03 21:32:27;;;;;;;19.03;11.70;;;0.00;88.40;;;1.51;53.57;99055.72;6047758;22;123812;-82
2023/12/03 21:35:04;;;;;;;17.03;10.13;;;0.80;87.40;;;1.52;53.81;99053.81;6122977;23;114229;-82
2023/12/03 21:37:34;;;;;;;24.80;11.20;;;0.90;90.30;;;1.51;53.59;99054.91;6119884;23;113400;-81
2023/12/03 21:40:12;;;;;;;17.23;9.77;;;3.60;90.60;;;1.51;53.75;99050.28;6112156;23;123933;-80
2023/12/03 21:42:50;;;;;;;16.10;10.40;;;-1.30;87.40;;;1.50;53.42;99050.50;6087213;23;122104;-80
2023/12/03 21:46:00;;;;;;;17.40;9.83;;;1.20;90.60;;;1.46;53.35;99044.75;6118630;23;115163;-80
2023/12/03 21:48:38;;;;;;;17.10;9.00;;;0.80;87.40;;;1.42;53.46;99040.03;6134353;22;115626;-82
2023/12/03 21:51:13;;;;;;;18.33;11.00;;;4.60;92.30;;;1.41;53.28;99032.94;6135773;23;123936;-82
2023/12/03 21:53:39;;;;;;;17.00;9.30;;;-0.50;90.70;;;1.43;53.26;99041.69;6127125;23;124161;-80
2023/12/03 21:56:15;;;;;;;13.40;9.50;;;1.60;90.30;;;1.44;53.91;99040.63;6100258;23;114587;-81
2023/12/03 21:58:41;;;;;;;17.27;10.17;;;4.90;90.50;;;1.43;53.58;99052.59;6102003;23;113923;-80
2023/12/03 22:01:29;;;;;;;16.73;10.07;;;4.70;91.10;;;1.48;53.26;99047.22;6131719;23;124382;-81
2023/12/03 22:04:00;;;;;;;22.60;10.73;;;-0.60;86.40;;;1.47;53.89;99051.00;6112785;23;123094;-80
2023/12/03 22:06:30;;;;;;;15.47;8.97;;;1.70;90.80;;;1.42;53.59;99040.84;6136775;23;113659;-82
2023/12/03 22:09:06;;;;;;;19.17;10.13;;;5.10;90.50;;;1.41;53.46;99039.22;6141802;22;114028;-82
2023/12/03 22:11:45;;;;;;;13.90;9.37;;;0.20;89.90;;;1.41;53.80;99041.09;6146569;22;124300;-81
2023/12/03 22:14:13;;;;;;;16.57;9.30;;;2.30;91.30;;;1.39;53.61;99035.91;6101727;23;124404;-79
2023/12/03 22:16:51;;;;;;;18.87;10.33;;;2.10;91.30;;;1.40;53.52;99025.84;6131195;23;114243;-81
2023/12/03 22:19:30;;;;;;;14.70;9.03;;;1.40;91.10;;;1.40;53.67;99018.50;6148659;23;114723;-81
2023/12/03 22:22:01;;;;;;;16.23;9.53;;;5.40;91.30;;;1.41;53.52;99022.06;6105641;23;123884;-81
2023/12/03 22:24:31;;;;;;;17.63;10.60;;;3.90;90.50;;;1.39;53.53;99011.41;6110322;23;123528;-81
2023/12/03 22:27:21;;;;;;;24.20;11.70;;;-0.50;89.20;;;1.39;53.23;99002.41;6112226;23;112902;-82
2023/12/03 22:29:55;;;;;;;16.80;9.77;;;0.20;87.00;;;1.35;53.58;98998.56;6117089;23;114844;-82
2023/12/03 22:32:35;;;;;;;17.30;11.00;;;-1.90;85.20;;;1.28;53.56;99002.25;6143408;23;125777;-80
2023/12/03 22:35:16;;;;;;;18.90;9.70;;;-1.00;87.20;;;1.27;53.47;98989.72;6140688;23;125583;-81
2023/12/03 22:37:49;;;;;;;16.47;9.80;;;3.70;90.10;;;1.27;53.58;98983.47;6135482;23;115565;-81
2023/12/03 22:40:18;;;;;;;18.30;10.10;;;2.60;91.40;;;1.27;53.76;98989.72;6140233;23;115162;-82
2023/12/03 22:42:52;;;;;;;14.67;8.53;;;3.20;92.00;;;1.24;54.12;98987.50;6134937;23;123258;-80
2023/12/03 22:45:19;;;;;;;21.23;10.50;;;4.10;92.10;;;1.24;53.46;98986.69;6133711;23;123485;-81
2023/12/03 22:47:52;;;;;;;17.60;10.23;;;-0.60;89.30;;;1.19;53.90;98992.84;6108411;23;112868;-82
2023/12/03 22:50:22;;;;;;;21.13;9.70;;;0.50;91.00;;;1.16;53.58;98985.19;6083183;23;112757;-80
2023/12/03 22:52:50;;;;;;;19.13;9.50;;;1.50;90.20;;;1.17;53.77;98967.78;6099517;23;123690;-80
2023/12/03 22:55:25;;;;;;;16.90;9.17;;;2.80;91.30;;;1.19;53.82;98976.53;6139219;22;123116;-84
2023/12/03 22:57:57;;;;;;;20.07;10.73;;;-1.40;85.70;;;1.18;53.99;98980.28;6146985;23;113833;-80
2023/12/03 23:00:26;;;;;;;20.10;10.00;;;4.50;93.60;;;1.16;54.02;98974.31;6126575;23;113552;-80
2023/12/03 23:02:59;;;;;;;13.97;8.53;;;1.60;91.70;;;1.20;53.46;98978.16;6123059;23;123423;-80
2023/12/03 23:05:30;;;;;;;17.83;9.50;;;1.80;91.70;;;1.18;53.86;98963.97;6099446;23;123637;-80
2023/12/03 23:07:56;;;;;;;13.77;8.90;;;3.70;91.80;;;1.15;53.63;98959.03;6099938;23;114466;-80
2023/12/03 23:10:24;;;;;;;14.13;9.37;;;4.40;93.30;;;1.13;53.47;98958.47;6098888;23;114271;-81
2023/12/03 23:12:51;;;;;;;13.90;9.63;;;4.90;92.80;;;1.09;53.60;98958.13;6099341;23;122359;-80
2023/12/03 23:15:20;;;;;;;14.47;8.63;;;0.60;90.50;;;1.09;53.45;98969.00;6127554;23;123614;-80
2023/12/03 23:17:50;;;;;;;16.80;9.17;;;1.60;91.20;;;1.06;53.43;98955.06;6127976;23;114495;-80
2023/12/03 23:20:19;;;;;;;16.87;10.07;;;3.40;92.00;;;1.08;53.29;98958.38;6075406;23;113452;-81
2023/12/03 23:22:52;;;;;;;18.70;10.80;;;0.90;86.90;;;1.07;53.28;98951.28;6098290;23;122770;-80
2023/12/03 23:25:22;;;;;;;15.53;9.20;;;0.90;87.60;;;1.04;53.53;98951.78;6123949;23;123166;-80
2023/12/03 23:27:52;;;;;;;18.07;9.60;;;0.90;87.40;;;1.01;53.22;98947.66;6124760;23;115123;-81
2023/12/03 23:30:19;;;;;;;16.63;9.60;;;3.70;90.00;;;0.98;53.63;98950.88;6097406;23;113843;-79
2023/12/03 23:32:46;;;;;;;15.93;9.40;;;0.90;87.30;;;0.94;53.23;98946.16;6096588;23;123114;-80
2023/12/03 23:35:13;;;;;;;14.87;8.40;;;2.80;89.00;;;0.90;53.84;98939.56;6096886;23;123037;-80
2023/12/03 23:37:44;;;;;;;17.60;8.80;;;1.00;87.30;;;0.88;53.28;98939.81;6072789;23;113760;-81
2023/12/03 23:40:14;;;;;;;17.93;10.40;;;0.80;87.10;;;0.84;53.77;98931.31;6096114;23;113266;-79
2023/12/03 23:42:46;;;;;;;17.10;9.40;;;0.80;87.20;;;0.81;53.97;98931.81;6122908;23;124552;-80
2023/12/03 23:45:13;;;;;;;18.80;10.47;;;0.60;87.20;;;0.80;54.03;98932.03;6098089;23;124196;-79
2023/12/03 23:47:41;;;;;;;14.57;9.00;;;0.80;87.40;;;0.79;53.38;98938.56;6123649;23;114860;-80
2023/12/03 23:50:15;;;;;;;16.80;9.33;;;2.80;89.20;;;0.78;53.81;98934.19;6124034;23;113429;-80
2023/12/03 23:52:41;;;;;;;15.50;8.93;;;0.70;87.50;;;0.75;53.65;98916.47;6122275;23;123165;-79
2023/12/03 23:55:10;;;;;;;16.57;9.47;;;0.50;88.10;;;0.75;53.88;98916.47;6123715;23;123190;-80
2023/12/03 23:57:45;;;;;;;14.80;8.23;;;0.60;87.80;;;0.73;53.84;98913.19;6124466;23;114745;-79
